sensor_id;sensor_type;location;lat;lon;timestamp;temperature;humidity
38902;DHT22;24661;53.566;9.910;2022-12-18T00:01:42;-4.10;99.90
38902;DHT22;24661;53.566;9.910;2022-12-18T00:04:23;-4.10;99.90
38902;DHT22;24661;53.566;9.910;2022-12-18T00:06:49;-4.20;99.90
38902;DHT22;24661;53.566;9.910;2022-12-18T00:09:15;-4.20;99.90
38902;DHT22;24661;53.566;9.910;2022-12-18T00:11:41;-4.30;99.90
38902;DHT22;24661;53.566;9.910;2022-12-18T00:14:09;-4.30;99.90
38902;DHT22;24661;53.566;9.910;2022-12-18T00:16:35;-4.30;99.90
38902;DHT22;24661;53.566;9.910;2022-12-18T00:19:03;-4.30;99.90
38902;DHT22;24661;53.566;9.910;2022-12-18T00:21:30;-4.40;99.90
38902;DHT22;24661;53.566;9.910;2022-12-18T00:23:56;-4.40;99.90
38902;DHT22;24661;53.566;9.910;2022-12-18T00:26:25;-4.50;99.90
38902;DHT22;24661;53.566;9.910;2022-12-18T00:28:52;-4.50;99.90
38902;DHT22;24661;53.566;9.910;2022-12-18T00:31:20;-2.30;99.90
38902;DHT22;24661;53.566;9.910;2022-12-18T00:33:46;-4.40;99.90
38902;DHT22;24661;53.566;9.910;2022-12-18T00:36:18;-4.30;99.90
38902;DHT22;24661;53.566;9.910;2022-12-18T00:38:45;-4.30;99.90
38902;DHT22;24661;53.566;9.910;2022-12-18T00:41:12;-4.40;99.90
38902;DHT22;24661;53.566;9.910;2022-12-18T00:43:39;-4.50;99.90
38902;DHT22;24661;53.566;9.910;2022-12-18T00:46:05;-4.60;99.90
38902;DHT22;24661;53.566;9.910;2022-12-18T00:48:31;-4.60;99.90
38902;DHT22;24661;53.566;9.910;2022-12-18T00:50:57;-4.60;99.90
38902;DHT22;24661;53.566;9.910;2022-12-18T00:53:23;-4.60;99.90
38902;DHT22;24661;53.566;9.910;2022-12-18T00:55:49;-4.60;99.90
38902;DHT22;24661;53.566;9.910;2022-12-18T00:58:15;-4.60;99.90
38902;DHT22;24661;53.566;9.910;2022-12-18T01:00:42;-4.50;99.90
38902;DHT22;24661;53.566;9.910;2022-12-18T01:03:09;-4.50;99.90
38902;DHT22;24661;53.566;9.910;2022-12-18T01:05:39;-4.50;99.90
38902;DHT22;24661;53.566;9.910;2022-12-18T01:08:05;-4.50;99.90
38902;DHT22;24661;53.566;9.910;2022-12-18T01:10:31;-4.50;99.90
38902;DHT22;24661;53.566;9.910;2022-12-18T01:12:56;-4.50;99.90
38902;DHT22;24661;53.566;9.910;2022-12-18T01:15:22;-4.50;99.90
38902;DHT22;24661;53.566;9.910;2022-12-18T01:17:48;-4.60;99.90
38902;DHT22;24661;53.566;9.910;2022-12-18T01:20:14;-4.50;99.90
38902;DHT22;24661;53.566;9.910;2022-12-18T01:22:39;-4.50;99.90
38902;DHT22;24661;53.566;9.910;2022-12-18T01:25:05;-4.60;99.90
38902;DHT22;24661;53.566;9.910;2022-12-18T01:27:33;-4.50;99.90
38902;DHT22;24661;53.566;9.910;2022-12-18T01:29:59;-4.40;99.90
38902;DHT22;24661;53.566;9.910;2022-12-18T01:32:24;-4.30;99.90
38902;DHT22;24661;53.566;9.910;2022-12-18T01:34:50;-4.30;99.90
38902;DHT22;24661;53.566;9.910;2022-12-18T01:37:16;-4.30;99.90
38902;DHT22;24661;53.566;9.910;2022-12-18T01:39:41;-4.30;99.90
38902;DHT22;24661;53.566;9.910;2022-12-18T01:42:14;-4.20;99.90
38902;DHT22;24661;53.566;9.910;2022-12-18T01:45:00;-4.20;99.90
38902;DHT22;24661;53.566;9.910;2022-12-18T01:49:56;-4.20;99.90
38902;DHT22;24661;53.566;9.910;2022-12-18T01:52:24;-4.30;99.90
38902;DHT22;24661;53.566;9.910;2022-12-18T01:54:52;-4.30;99.90
38902;DHT22;24661;53.566;9.910;2022-12-18T01:57:19;-4.30;99.90
38902;DHT22;24661;53.566;9.910;2022-12-18T01:59:47;-4.30;99.90
38902;DHT22;24661;53.566;9.910;2022-12-18T02:02:16;-4.30;99.90
38902;DHT22;24661;53.566;9.910;2022-12-18T02:04:41;-4.30;99.90
38902;DHT22;24661;53.566;9.910;2022-12-18T02:09:50;-4.40;99.90
38902;DHT22;24661;53.566;9.910;2022-12-18T02:12:25;-4.50;99.90
38902;DHT22;24661;53.566;9.910;2022-12-18T02:15:00;-4.40;99.90
38902;DHT22;24661;53.566;9.910;2022-12-18T02:17:52;-4.40;99.90
38902;DHT22;24661;53.566;9.910;2022-12-18T02:23:04;-4.50;99.90
38902;DHT22;24661;53.566;9.910;2022-12-18T02:28:20;-4.70;99.90
38902;DHT22;24661;53.566;9.910;2022-12-18T02:30:48;-4.70;99.90
38902;DHT22;24661;53.566;9.910;2022-12-18T02:33:15;-4.70;99.90
38902;DHT22;24661;53.566;9.910;2022-12-18T02:35:44;-4.80;99.90
38902;DHT22;24661;53.566;9.910;2022-12-18T02:38:12;-4.90;99.90
38902;DHT22;24661;53.566;9.910;2022-12-18T02:40:38;-4.90;99.90
38902;DHT22;24661;53.566;9.910;2022-12-18T02:43:10;-4.90;99.90
38902;DHT22;24661;53.566;9.910;2022-12-18T02:48:35;-5.00;99.90
38902;DHT22;24661;53.566;9.910;2022-12-18T02:51:47;-5.20;99.90
38902;DHT22;24661;53.566;9.910;2022-12-18T02:54:02;-5.20;99.90
38902;DHT22;24661;53.566;9.910;2022-12-18T02:56:50;-5.30;99.90
38902;DHT22;24661;53.566;9.910;2022-12-18T02:59:29;-5.40;99.90
38902;DHT22;24661;53.566;9.910;2022-12-18T03:01:57;-5.30;99.90
38902;DHT22;24661;53.566;9.910;2022-12-18T03:04:34;-5.40;99.90
38902;DHT22;24661;53.566;9.910;2022-12-18T03:07:08;-5.40;99.90
38902;DHT22;24661;53.566;9.910;2022-12-18T03:09:38;-5.40;99.90
38902;DHT22;24661;53.566;9.910;2022-12-18T03:12:20;-5.40;99.90
38902;DHT22;24661;53.566;9.910;2022-12-18T03:15:02;-5.40;99.90
38902;DHT22;24661;53.566;9.910;2022-12-18T03:17:32;-5.30;99.90
38902;DHT22;24661;53.566;9.910;2022-12-18T03:20:03;-5.40;99.90
38902;DHT22;24661;53.566;9.910;2022-12-18T03:22:32;-5.40;99.90
38902;DHT22;24661;53.566;9.910;2022-12-18T03:25:01;-5.50;99.90
38902;DHT22;24661;53.566;9.910;2022-12-18T03:27:29;-5.60;99.90
38902;DHT22;24661;53.566;9.910;2022-12-18T03:30:08;-5.70;99.90
38902;DHT22;24661;53.566;9.910;2022-12-18T03:33:45;-5.50;99.90
38902;DHT22;24661;53.566;9.910;2022-12-18T03:35:41;-5.60;99.90
38902;DHT22;24661;53.566;9.910;2022-12-18T03:38:08;-5.60;99.90
38902;DHT22;24661;53.566;9.910;2022-12-18T03:40:43;-5.60;99.90
38902;DHT22;24661;53.566;9.910;2022-12-18T03:48:48;-3.80;99.90
38902;DHT22;24661;53.566;9.910;2022-12-18T03:51:26;-5.70;99.90
38902;DHT22;24661;53.566;9.910;2022-12-18T03:53:58;-5.60;99.90
38902;DHT22;24661;53.566;9.910;2022-12-18T03:56:29;-7.50;99.90
38902;DHT22;24661;53.566;9.910;2022-12-18T03:58:56;-5.40;99.90
38902;DHT22;24661;53.566;9.910;2022-12-18T04:01:29;-5.30;99.90
38902;DHT22;24661;53.566;9.910;2022-12-18T04:03:59;-5.30;99.90
38902;DHT22;24661;53.566;9.910;2022-12-18T04:06:26;-5.30;99.90
38902;DHT22;24661;53.566;9.910;2022-12-18T04:08:53;-5.30;99.90
38902;DHT22;24661;53.566;9.910;2022-12-18T04:11:19;-5.30;99.90
38902;DHT22;24661;53.566;9.910;2022-12-18T04:13:44;-5.20;99.90
38902;DHT22;24661;53.566;9.910;2022-12-18T04:16:10;-5.20;99.90
38902;DHT22;24661;53.566;9.910;2022-12-18T04:18:36;-5.20;99.90
38902;DHT22;24661;53.566;9.910;2022-12-18T04:21:02;-5.20;99.90
38902;DHT22;24661;53.566;9.910;2022-12-18T04:23:28;-5.20;99.90
38902;DHT22;24661;53.566;9.910;2022-12-18T04:25:54;-5.30;99.90
38902;DHT22;24661;53.566;9.910;2022-12-18T04:28:20;-5.20;99.90
38902;DHT22;24661;53.566;9.910;2022-12-18T04:30:46;-5.30;99.90
38902;DHT22;24661;53.566;9.910;2022-12-18T04:33:12;-5.10;99.90
38902;DHT22;24661;53.566;9.910;2022-12-18T04:35:39;-5.20;99.90
38902;DHT22;24661;53.566;9.910;2022-12-18T04:38:06;-5.20;99.90
38902;DHT22;24661;53.566;9.910;2022-12-18T04:40:32;-5.30;99.90
38902;DHT22;24661;53.566;9.910;2022-12-18T04:42:58;-5.40;99.90
38902;DHT22;24661;53.566;9.910;2022-12-18T04:45:23;-5.40;99.90
38902;DHT22;24661;53.566;9.910;2022-12-18T04:47:49;-5.40;99.90
38902;DHT22;24661;53.566;9.910;2022-12-18T04:50:14;-5.50;99.90
38902;DHT22;24661;53.566;9.910;2022-12-18T04:52:40;-4.20;99.90
38902;DHT22;24661;53.566;9.910;2022-12-18T04:55:06;-5.50;99.90
38902;DHT22;24661;53.566;9.910;2022-12-18T04:57:32;-5.60;99.90
38902;DHT22;24661;53.566;9.910;2022-12-18T04:59:57;-6.70;99.90
38902;DHT22;24661;53.566;9.910;2022-12-18T05:02:23;-5.60;99.90
38902;DHT22;24661;53.566;9.910;2022-12-18T05:04:49;-5.80;99.90
38902;DHT22;24661;53.566;9.910;2022-12-18T05:07:14;-5.90;99.90
38902;DHT22;24661;53.566;9.910;2022-12-18T05:09:40;-5.90;99.90
38902;DHT22;24661;53.566;9.910;2022-12-18T05:12:06;-6.00;99.90
38902;DHT22;24661;53.566;9.910;2022-12-18T05:14:31;-6.00;99.90
38902;DHT22;24661;53.566;9.910;2022-12-18T05:16:57;-6.00;99.90
38902;DHT22;24661;53.566;9.910;2022-12-18T05:19:23;-6.00;99.90
38902;DHT22;24661;53.566;9.910;2022-12-18T05:21:49;-6.10;99.90
38902;DHT22;24661;53.566;9.910;2022-12-18T05:24:14;-6.00;99.90
38902;DHT22;24661;53.566;9.910;2022-12-18T05:26:40;-6.00;99.90
38902;DHT22;24661;53.566;9.910;2022-12-18T05:29:05;-5.80;99.90
38902;DHT22;24661;53.566;9.910;2022-12-18T05:31:31;-5.90;99.90
38902;DHT22;24661;53.566;9.910;2022-12-18T05:33:58;-5.90;99.90
38902;DHT22;24661;53.566;9.910;2022-12-18T05:36:23;-5.80;99.90
38902;DHT22;24661;53.566;9.910;2022-12-18T05:38:49;-5.80;99.90
38902;DHT22;24661;53.566;9.910;2022-12-18T05:41:15;-6.00;99.90
38902;DHT22;24661;53.566;9.910;2022-12-18T05:43:41;-5.90;99.90
38902;DHT22;24661;53.566;9.910;2022-12-18T05:46:08;-6.00;99.90
38902;DHT22;24661;53.566;9.910;2022-12-18T05:48:36;-6.00;99.90
38902;DHT22;24661;53.566;9.910;2022-12-18T05:51:07;-6.10;99.90
38902;DHT22;24661;53.566;9.910;2022-12-18T05:53:33;-6.20;99.90
38902;DHT22;24661;53.566;9.910;2022-12-18T05:56:02;-6.20;99.90
38902;DHT22;24661;53.566;9.910;2022-12-18T05:58:29;-6.30;99.90
38902;DHT22;24661;53.566;9.910;2022-12-18T06:00:55;-6.20;99.90
38902;DHT22;24661;53.566;9.910;2022-12-18T06:03:20;-6.20;99.90
38902;DHT22;24661;53.566;9.910;2022-12-18T06:05:46;-6.10;99.90
38902;DHT22;24661;53.566;9.910;2022-12-18T06:08:13;-6.10;99.90
38902;DHT22;24661;53.566;9.910;2022-12-18T06:10:39;-6.10;99.90
38902;DHT22;24661;53.566;9.910;2022-12-18T06:13:06;-6.10;99.90
38902;DHT22;24661;53.566;9.910;2022-12-18T06:15:32;-6.10;99.90
38902;DHT22;24661;53.566;9.910;2022-12-18T06:17:58;-6.00;99.90
38902;DHT22;24661;53.566;9.910;2022-12-18T06:20:25;-6.10;99.90
38902;DHT22;24661;53.566;9.910;2022-12-18T06:22:51;-6.10;99.90
38902;DHT22;24661;53.566;9.910;2022-12-18T06:25:16;-6.00;99.90
38902;DHT22;24661;53.566;9.910;2022-12-18T06:27:42;-6.10;99.90
38902;DHT22;24661;53.566;9.910;2022-12-18T06:30:08;-6.20;99.90
38902;DHT22;24661;53.566;9.910;2022-12-18T06:32:34;-6.20;99.90
38902;DHT22;24661;53.566;9.910;2022-12-18T06:35:00;-6.20;99.90
38902;DHT22;24661;53.566;9.910;2022-12-18T06:37:26;-6.10;99.90
38902;DHT22;24661;53.566;9.910;2022-12-18T06:39:54;-6.40;99.90
38902;DHT22;24661;53.566;9.910;2022-12-18T06:42:22;-6.40;99.90
38902;DHT22;24661;53.566;9.910;2022-12-18T06:44:47;-6.50;99.90
38902;DHT22;24661;53.566;9.910;2022-12-18T06:47:13;-6.50;99.90
38902;DHT22;24661;53.566;9.910;2022-12-18T06:49:38;-6.40;99.90
38902;DHT22;24661;53.566;9.910;2022-12-18T06:52:04;-6.40;99.90
38902;DHT22;24661;53.566;9.910;2022-12-18T06:54:30;-6.50;99.90
38902;DHT22;24661;53.566;9.910;2022-12-18T06:56:55;-6.60;99.90
38902;DHT22;24661;53.566;9.910;2022-12-18T06:59:21;-6.70;99.90
38902;DHT22;24661;53.566;9.910;2022-12-18T07:01:47;-6.70;99.90
38902;DHT22;24661;53.566;9.910;2022-12-18T07:04:13;-4.90;99.90
38902;DHT22;24661;53.566;9.910;2022-12-18T07:06:38;-6.80;99.90
38902;DHT22;24661;53.566;9.910;2022-12-18T07:09:04;-6.70;99.90
38902;DHT22;24661;53.566;9.910;2022-12-18T07:11:32;-6.80;99.90
38902;DHT22;24661;53.566;9.910;2022-12-18T07:13:58;-6.80;99.90
38902;DHT22;24661;53.566;9.910;2022-12-18T07:16:23;-6.80;99.90
38902;DHT22;24661;53.566;9.910;2022-12-18T07:18:49;-6.80;99.90
38902;DHT22;24661;53.566;9.910;2022-12-18T07:21:17;-6.80;99.90
38902;DHT22;24661;53.566;9.910;2022-12-18T07:23:43;-6.80;99.90
38902;DHT22;24661;53.566;9.910;2022-12-18T07:26:12;-6.70;99.90
38902;DHT22;24661;53.566;9.910;2022-12-18T07:28:39;-6.70;99.90
38902;DHT22;24661;53.566;9.910;2022-12-18T07:31:07;-6.80;99.90
38902;DHT22;24661;53.566;9.910;2022-12-18T07:33:34;-6.70;99.90
38902;DHT22;24661;53.566;9.910;2022-12-18T07:36:04;-6.80;99.90
38902;DHT22;24661;53.566;9.910;2022-12-18T07:38:31;-6.80;99.90
38902;DHT22;24661;53.566;9.910;2022-12-18T07:41:04;-6.70;99.90
38902;DHT22;24661;53.566;9.910;2022-12-18T07:43:30;-6.80;99.90
38902;DHT22;24661;53.566;9.910;2022-12-18T07:45:56;-6.60;99.90
38902;DHT22;24661;53.566;9.910;2022-12-18T07:48:22;-6.70;99.90
38902;DHT22;24661;53.566;9.910;2022-12-18T07:50:47;-6.60;99.90
38902;DHT22;24661;53.566;9.910;2022-12-18T07:53:13;-6.50;99.90
38902;DHT22;24661;53.566;9.910;2022-12-18T07:55:40;-6.50;99.90
38902;DHT22;24661;53.566;9.910;2022-12-18T07:58:07;-5.30;99.90
38902;DHT22;24661;53.566;9.910;2022-12-18T08:00:33;-6.60;99.90
38902;DHT22;24661;53.566;9.910;2022-12-18T08:02:59;-6.60;99.90
38902;DHT22;24661;53.566;9.910;2022-12-18T08:05:25;-6.60;99.90
38902;DHT22;24661;53.566;9.910;2022-12-18T08:07:51;-6.60;99.90
38902;DHT22;24661;53.566;9.910;2022-12-18T08:10:17;-6.60;99.90
38902;DHT22;24661;53.566;9.910;2022-12-18T08:12:43;-6.50;99.90
38902;DHT22;24661;53.566;9.910;2022-12-18T08:15:09;-6.50;99.90
38902;DHT22;24661;53.566;9.910;2022-12-18T08:17:34;-4.90;99.90
38902;DHT22;24661;53.566;9.910;2022-12-18T08:20:00;-6.00;99.90
38902;DHT22;24661;53.566;9.910;2022-12-18T08:22:26;-6.70;99.90
38902;DHT22;24661;53.566;9.910;2022-12-18T08:24:51;-5.70;99.90
38902;DHT22;24661;53.566;9.910;2022-12-18T08:27:17;-5.60;99.90
38902;DHT22;24661;53.566;9.910;2022-12-18T08:29:43;-5.50;99.90
38902;DHT22;24661;53.566;9.910;2022-12-18T08:32:08;-5.40;99.90
38902;DHT22;24661;53.566;9.910;2022-12-18T08:34:34;-5.20;99.90
38902;DHT22;24661;53.566;9.910;2022-12-18T08:37:00;-5.20;99.90
38902;DHT22;24661;53.566;9.910;2022-12-18T08:39:26;-5.10;99.90
38902;DHT22;24661;53.566;9.910;2022-12-18T08:41:51;-5.00;99.90
38902;DHT22;24661;53.566;9.910;2022-12-18T08:44:36;-4.90;99.90
38902;DHT22;24661;53.566;9.910;2022-12-18T08:47:05;-4.80;99.90
38902;DHT22;24661;53.566;9.910;2022-12-18T08:49:32;-4.70;99.90
38902;DHT22;24661;53.566;9.910;2022-12-18T08:51:57;-4.70;99.90
38902;DHT22;24661;53.566;9.910;2022-12-18T08:54:24;-4.60;99.90
38902;DHT22;24661;53.566;9.910;2022-12-18T08:56:50;-4.60;99.90
38902;DHT22;24661;53.566;9.910;2022-12-18T08:59:17;-4.60;99.90
38902;DHT22;24661;53.566;9.910;2022-12-18T09:01:43;-4.50;99.90
38902;DHT22;24661;53.566;9.910;2022-12-18T09:04:12;-4.50;99.90
38902;DHT22;24661;53.566;9.910;2022-12-18T09:06:40;-4.50;99.90
38902;DHT22;24661;53.566;9.910;2022-12-18T09:09:06;-4.40;99.90
38902;DHT22;24661;53.566;9.910;2022-12-18T09:11:32;-4.40;99.90
38902;DHT22;24661;53.566;9.910;2022-12-18T09:14:00;-4.40;99.90
38902;DHT22;24661;53.566;9.910;2022-12-18T09:16:27;-4.30;99.90
38902;DHT22;24661;53.566;9.910;2022-12-18T09:18:56;-4.20;99.90
38902;DHT22;24661;53.566;9.910;2022-12-18T09:21:26;-4.30;99.90
38902;DHT22;24661;53.566;9.910;2022-12-18T09:23:53;-4.20;99.90
38902;DHT22;24661;53.566;9.910;2022-12-18T09:26:20;-4.20;99.90
38902;DHT22;24661;53.566;9.910;2022-12-18T09:28:46;-4.10;99.90
38902;DHT22;24661;53.566;9.910;2022-12-18T09:31:12;-4.00;99.90
38902;DHT22;24661;53.566;9.910;2022-12-18T09:33:38;-4.00;99.90
38902;DHT22;24661;53.566;9.910;2022-12-18T09:36:06;-3.90;99.90
38902;DHT22;24661;53.566;9.910;2022-12-18T09:38:32;-3.90;99.90
38902;DHT22;24661;53.566;9.910;2022-12-18T09:43:47;-3.80;99.90
38902;DHT22;24661;53.566;9.910;2022-12-18T09:46:23;-3.70;99.90
38902;DHT22;24661;53.566;9.910;2022-12-18T09:48:52;-3.60;99.90
38902;DHT22;24661;53.566;9.910;2022-12-18T09:51:24;-3.50;99.90
38902;DHT22;24661;53.566;9.910;2022-12-18T09:53:55;-3.50;99.90
38902;DHT22;24661;53.566;9.910;2022-12-18T09:56:22;-3.40;99.90
38902;DHT22;24661;53.566;9.910;2022-12-18T09:58:59;-3.40;99.90
38902;DHT22;24661;53.566;9.910;2022-12-18T10:01:27;-3.40;99.90
38902;DHT22;24661;53.566;9.910;2022-12-18T10:03:54;-3.20;99.90
38902;DHT22;24661;53.566;9.910;2022-12-18T10:06:31;-3.10;99.90
38902;DHT22;24661;53.566;9.910;2022-12-18T10:09:18;-3.00;99.90
38902;DHT22;24661;53.566;9.910;2022-12-18T10:20:33;-2.80;99.90
38902;DHT22;24661;53.566;9.910;2022-12-18T10:23:29;-2.70;99.90
38902;DHT22;24661;53.566;9.910;2022-12-18T10:26:06;-2.60;99.90
38902;DHT22;24661;53.566;9.910;2022-12-18T10:28:37;-2.60;99.90
38902;DHT22;24661;53.566;9.910;2022-12-18T10:31:18;-2.60;99.90
38902;DHT22;24661;53.566;9.910;2022-12-18T10:33:44;-2.50;99.90
38902;DHT22;24661;53.566;9.910;2022-12-18T10:36:10;-2.40;99.90
38902;DHT22;24661;53.566;9.910;2022-12-18T10:38:36;-2.40;99.90
38902;DHT22;24661;53.566;9.910;2022-12-18T10:43:38;-2.30;99.90
38902;DHT22;24661;53.566;9.910;2022-12-18T10:46:15;-2.30;99.90
38902;DHT22;24661;53.566;9.910;2022-12-18T10:51:32;-2.20;99.90
38902;DHT22;24661;53.566;9.910;2022-12-18T10:54:06;-1.90;99.90
38902;DHT22;24661;53.566;9.910;2022-12-18T10:56:38;-2.20;99.90
38902;DHT22;24661;53.566;9.910;2022-12-18T10:59:09;-2.20;99.90
38902;DHT22;24661;53.566;9.910;2022-12-18T11:07:07;-2.00;99.90
38902;DHT22;24661;53.566;9.910;2022-12-18T11:09:35;-2.00;99.90
38902;DHT22;24661;53.566;9.910;2022-12-18T11:17:19;-1.80;99.90
38902;DHT22;24661;53.566;9.910;2022-12-18T11:19:52;-1.70;99.90
38902;DHT22;24661;53.566;9.910;2022-12-18T11:25:06;-1.90;99.90
38902;DHT22;24661;53.566;9.910;2022-12-18T11:27:51;-1.90;99.90
38902;DHT22;24661;53.566;9.910;2022-12-18T11:32:52;-1.90;99.90
38902;DHT22;24661;53.566;9.910;2022-12-18T11:35:23;-1.90;99.90
38902;DHT22;24661;53.566;9.910;2022-12-18T11:38:04;-1.80;99.90
38902;DHT22;24661;53.566;9.910;2022-12-18T11:40:35;-1.80;99.90
38902;DHT22;24661;53.566;9.910;2022-12-18T11:45:35;-1.90;99.90
38902;DHT22;24661;53.566;9.910;2022-12-18T11:50:49;-1.80;99.90
38902;DHT22;24661;53.566;9.910;2022-12-18T11:53:16;-1.70;99.90
38902;DHT22;24661;53.566;9.910;2022-12-18T11:58:23;-1.70;99.90
38902;DHT22;24661;53.566;9.910;2022-12-18T12:01:15;-1.60;99.90
38902;DHT22;24661;53.566;9.910;2022-12-18T12:04:19;-1.70;99.90
38902;DHT22;24661;53.566;9.910;2022-12-18T12:06:49;-1.60;99.90
38902;DHT22;24661;53.566;9.910;2022-12-18T12:09:39;-1.70;99.90
38902;DHT22;24661;53.566;9.910;2022-12-18T12:26:45;-1.70;99.90
38902;DHT22;24661;53.566;9.910;2022-12-18T12:34:45;-1.80;99.90
38902;DHT22;24661;53.566;9.910;2022-12-18T12:40:01;-1.80;99.90
38902;DHT22;24661;53.566;9.910;2022-12-18T12:42:46;-1.80;99.90
38902;DHT22;24661;53.566;9.910;2022-12-18T12:45:38;-1.80;99.90
38902;DHT22;24661;53.566;9.910;2022-12-18T12:48:10;-1.70;99.90
38902;DHT22;24661;53.566;9.910;2022-12-18T12:50:41;-1.60;99.90
38902;DHT22;24661;53.566;9.910;2022-12-18T12:53:09;-1.50;99.90
38902;DHT22;24661;53.566;9.910;2022-12-18T12:55:39;-1.40;99.90
38902;DHT22;24661;53.566;9.910;2022-12-18T12:58:23;-1.30;99.90
38902;DHT22;24661;53.566;9.910;2022-12-18T13:07:04;-1.40;99.90
38902;DHT22;24661;53.566;9.910;2022-12-18T13:09:32;-1.40;99.90
38902;DHT22;24661;53.566;9.910;2022-12-18T13:12:04;-1.40;99.90
38902;DHT22;24661;53.566;9.910;2022-12-18T13:14:49;-1.30;99.90
38902;DHT22;24661;53.566;9.910;2022-12-18T13:19:48;-1.20;99.90
38902;DHT22;24661;53.566;9.910;2022-12-18T13:22:28;-1.20;99.90
38902;DHT22;24661;53.566;9.910;2022-12-18T13:24:54;-1.40;99.90
38902;DHT22;24661;53.566;9.910;2022-12-18T13:43:48;-2.00;99.90
38902;DHT22;24661;53.566;9.910;2022-12-18T13:49:05;-2.30;99.90
38902;DHT22;24661;53.566;9.910;2022-12-18T13:51:50;-2.20;99.90
38902;DHT22;24661;53.566;9.910;2022-12-18T13:54:38;-2.20;99.90
38902;DHT22;24661;53.566;9.910;2022-12-18T13:57:05;-2.20;99.90
38902;DHT22;24661;53.566;9.910;2022-12-18T13:59:38;-2.20;99.90
38902;DHT22;24661;53.566;9.910;2022-12-18T14:02:16;-2.20;99.90
38902;DHT22;24661;53.566;9.910;2022-12-18T14:04:45;-2.20;99.90
38902;DHT22;24661;53.566;9.910;2022-12-18T14:07:14;-2.30;99.90
38902;DHT22;24661;53.566;9.910;2022-12-18T14:09:45;-2.40;99.90
38902;DHT22;24661;53.566;9.910;2022-12-18T14:12:32;-2.40;99.90
38902;DHT22;24661;53.566;9.910;2022-12-18T14:17:54;-2.50;99.90
38902;DHT22;24661;53.566;9.910;2022-12-18T14:20:20;-2.50;99.90
38902;DHT22;24661;53.566;9.910;2022-12-18T14:22:48;-2.60;99.90
38902;DHT22;24661;53.566;9.910;2022-12-18T14:25:15;-2.50;99.90
38902;DHT22;24661;53.566;9.910;2022-12-18T14:27:44;-2.60;99.90
38902;DHT22;24661;53.566;9.910;2022-12-18T14:30:38;-2.70;99.90
38902;DHT22;24661;53.566;9.910;2022-12-18T14:33:08;-2.70;99.90
38902;DHT22;24661;53.566;9.910;2022-12-18T14:35:37;-2.10;99.90
38902;DHT22;24661;53.566;9.910;2022-12-18T14:38:24;-2.80;99.90
38902;DHT22;24661;53.566;9.910;2022-12-18T14:41:11;-2.80;99.90
38902;DHT22;24661;53.566;9.910;2022-12-18T14:43:40;-2.80;99.90
38902;DHT22;24661;53.566;9.910;2022-12-18T14:46:34;-2.80;99.90
38902;DHT22;24661;53.566;9.910;2022-12-18T14:49:31;-2.80;99.90
38902;DHT22;24661;53.566;9.910;2022-12-18T14:52:03;-2.80;99.90
38902;DHT22;24661;53.566;9.910;2022-12-18T14:54:29;-2.80;99.90
38902;DHT22;24661;53.566;9.910;2022-12-18T14:57:06;-2.90;99.90
38902;DHT22;24661;53.566;9.910;2022-12-18T14:59:32;-3.00;99.90
38902;DHT22;24661;53.566;9.910;2022-12-18T15:02:21;-2.90;99.90
38902;DHT22;24661;53.566;9.910;2022-12-18T15:04:59;-3.00;99.90
38902;DHT22;24661;53.566;9.910;2022-12-18T15:07:25;-3.00;99.90
38902;DHT22;24661;53.566;9.910;2022-12-18T15:10:13;-3.00;99.90
38902;DHT22;24661;53.566;9.910;2022-12-18T15:12:41;-2.90;99.90
38902;DHT22;24661;53.566;9.910;2022-12-18T15:20:50;-3.10;99.90
38902;DHT22;24661;53.566;9.910;2022-12-18T15:23:24;-3.10;99.90
38902;DHT22;24661;53.566;9.910;2022-12-18T15:33:58;-3.20;99.90
38902;DHT22;24661;53.566;9.910;2022-12-18T15:36:26;-3.30;99.90
38902;DHT22;24661;53.566;9.910;2022-12-18T15:38:53;-3.10;99.90
38902;DHT22;24661;53.566;9.910;2022-12-18T15:41:21;-3.20;99.90
38902;DHT22;24661;53.566;9.910;2022-12-18T15:43:50;-3.10;99.90
38902;DHT22;24661;53.566;9.910;2022-12-18T15:46:24;-3.20;99.90
38902;DHT22;24661;53.566;9.910;2022-12-18T15:48:55;-3.10;99.90
38902;DHT22;24661;53.566;9.910;2022-12-18T15:51:31;-3.20;99.90
38902;DHT22;24661;53.566;9.910;2022-12-18T15:53:59;-3.20;99.90
38902;DHT22;24661;53.566;9.910;2022-12-18T15:56:27;-1.60;99.90
38902;DHT22;24661;53.566;9.910;2022-12-18T15:59:14;-3.20;99.90
38902;DHT22;24661;53.566;9.910;2022-12-18T16:01:41;-3.10;99.90
38902;DHT22;24661;53.566;9.910;2022-12-18T16:04:11;-3.20;99.90
38902;DHT22;24661;53.566;9.910;2022-12-18T16:06:37;-2.70;99.90
38902;DHT22;24661;53.566;9.910;2022-12-18T16:09:02;-3.10;99.90
38902;DHT22;24661;53.566;9.910;2022-12-18T16:11:30;-3.10;99.90
38902;DHT22;24661;53.566;9.910;2022-12-18T16:14:20;-3.10;99.90
38902;DHT22;24661;53.566;9.910;2022-12-18T16:16:49;-3.10;99.90
38902;DHT22;24661;53.566;9.910;2022-12-18T16:19:15;-3.10;99.90
38902;DHT22;24661;53.566;9.910;2022-12-18T16:21:42;-3.10;99.90
38902;DHT22;24661;53.566;9.910;2022-12-18T16:24:19;-3.00;99.90
38902;DHT22;24661;53.566;9.910;2022-12-18T16:26:47;-3.00;99.90
38902;DHT22;24661;53.566;9.910;2022-12-18T16:29:13;-3.10;99.90
38902;DHT22;24661;53.566;9.910;2022-12-18T16:31:39;-3.10;99.90
38902;DHT22;24661;53.566;9.910;2022-12-18T16:36:52;-3.00;99.90
38902;DHT22;24661;53.566;9.910;2022-12-18T16:39:19;-3.00;99.90
38902;DHT22;24661;53.566;9.910;2022-12-18T16:41:45;-3.10;99.90
38902;DHT22;24661;53.566;9.910;2022-12-18T16:44:11;-3.10;99.90
38902;DHT22;24661;53.566;9.910;2022-12-18T16:46:37;-3.00;99.90
38902;DHT22;24661;53.566;9.910;2022-12-18T16:49:04;-3.00;99.90
38902;DHT22;24661;53.566;9.910;2022-12-18T16:51:30;-2.60;99.90
38902;DHT22;24661;53.566;9.910;2022-12-18T16:53:56;-3.00;99.90
38902;DHT22;24661;53.566;9.910;2022-12-18T16:56:23;-3.00;99.90
38902;DHT22;24661;53.566;9.910;2022-12-18T16:58:53;-3.00;99.90
38902;DHT22;24661;53.566;9.910;2022-12-18T17:01:20;-3.00;99.90
38902;DHT22;24661;53.566;9.910;2022-12-18T17:03:53;-3.10;99.90
38902;DHT22;24661;53.566;9.910;2022-12-18T17:06:20;-3.00;99.90
38902;DHT22;24661;53.566;9.910;2022-12-18T17:08:46;-3.00;99.90
38902;DHT22;24661;53.566;9.910;2022-12-18T17:11:12;-3.10;99.90
38902;DHT22;24661;53.566;9.910;2022-12-18T17:13:38;-3.10;99.90
38902;DHT22;24661;53.566;9.910;2022-12-18T17:16:06;-1.20;99.90
38902;DHT22;24661;53.566;9.910;2022-12-18T17:18:33;-3.20;99.90
38902;DHT22;24661;53.566;9.910;2022-12-18T17:21:00;-3.10;99.90
38902;DHT22;24661;53.566;9.910;2022-12-18T17:23:27;-3.20;99.90
38902;DHT22;24661;53.566;9.910;2022-12-18T17:25:57;-3.10;99.90
38902;DHT22;24661;53.566;9.910;2022-12-18T17:28:23;-3.10;99.90
38902;DHT22;24661;53.566;9.910;2022-12-18T17:30:51;-3.10;99.90
38902;DHT22;24661;53.566;9.910;2022-12-18T17:33:17;-3.00;99.90
38902;DHT22;24661;53.566;9.910;2022-12-18T17:35:43;-3.10;99.90
38902;DHT22;24661;53.566;9.910;2022-12-18T17:38:09;-3.10;99.90
38902;DHT22;24661;53.566;9.910;2022-12-18T17:40:35;-3.00;99.90
38902;DHT22;24661;53.566;9.910;2022-12-18T17:43:00;-3.10;99.90
38902;DHT22;24661;53.566;9.910;2022-12-18T17:45:26;-3.00;99.90
38902;DHT22;24661;53.566;9.910;2022-12-18T17:47:52;-3.10;99.90
38902;DHT22;24661;53.566;9.910;2022-12-18T17:50:18;-3.10;99.90
38902;DHT22;24661;53.566;9.910;2022-12-18T17:52:44;-3.10;99.90
38902;DHT22;24661;53.566;9.910;2022-12-18T17:55:10;-3.10;99.90